Time;durP1;ratioP1;P1;durP2;ratioP2;P2;SDS_P1;SDS_P2;PMS_P1;PMS_P2;Temp;Humidity;BMP_temperature;BMP_pressure;BME280_temperature;BME280_humidity;BME280_pressure;Samples;Min_cycle;Max_cycle;Signal;HPM_P1;HPM_P2
2022/08/13 00:02:10;;;;;;;2.63;2.17;;;20.20;88.70;;;;;;5057080;28;20180;-80
2022/08/13 00:04:36;;;;;;;14.07;2.22;;;20.10;88.70;;;;;;5057077;28;20165;-81
2022/08/13 00:07:05;;;;;;;6.78;2.17;;;19.90;89.60;;;;;;5057319;28;20622;-81
2022/08/13 00:09:32;;;;;;;2.10;1.88;;;19.90;89.60;;;;;;5058076;28;20181;-80
2022/08/13 00:14:45;;;;;;;4.87;1.90;;;19.70;89.90;;;;;;5057384;28;20184;-80
2022/08/13 00:17:12;;;;;;;6.60;2.20;;;20.10;87.00;;;;;;5055069;28;20177;-81
2022/08/13 00:19:39;;;;;;;3.33;2.00;;;20.10;87.60;;;;;;5068643;22;20274;-77
2022/08/13 00:22:05;;;;;;;3.93;2.47;;;20.10;87.40;;;;;;5053086;28;20177;-78
2022/08/13 00:24:31;;;;;;;7.13;2.30;;;20.00;87.50;;;;;;5053281;28;20184;-78
2022/08/13 00:26:59;;;;;;;3.60;2.13;;;19.90;87.50;;;;;;5035552;28;20169;-77
2022/08/13 00:29:26;;;;;;;3.33;2.10;;;20.00;87.20;;;;;;5053276;28;20185;-78
2022/08/13 00:31:52;;;;;;;5.00;2.27;;;19.60;88.50;;;;;;5067889;22;20216;-79
2022/08/13 00:34:18;;;;;;;2.23;2.00;;;19.60;88.50;;;;;;5032185;28;20619;-79
2022/08/13 00:36:45;;;;;;;2.23;2.07;;;19.80;88.40;;;;;;5033669;28;20190;-80
2022/08/13 00:39:10;;;;;;;3.57;2.10;;;19.70;88.00;;;;;;5032915;28;20201;-81
2022/08/13 00:41:38;;;;;;;5.13;2.00;;;19.80;88.20;;;;;;5033022;28;20206;-79
2022/08/13 00:44:09;;;;;;;6.50;2.00;;;19.70;88.60;;;;;;5032601;28;20197;-80
2022/08/13 00:46:36;;;;;;;3.50;1.90;;;19.30;90.00;;;;;;5034795;28;20251;-81
2022/08/13 00:49:03;;;;;;;4.83;1.90;;;19.40;89.70;;;;;;5032643;28;20635;-80
2022/08/13 00:51:30;;;;;;;4.30;2.10;;;19.40;89.40;;;;;;5033828;28;20269;-79
2022/08/13 00:53:58;;;;;;;3.30;2.20;;;19.70;89.00;;;;;;5034411;28;20549;-81
2022/08/13 00:56:24;;;;;;;4.63;2.10;;;19.60;89.40;;;;;;5034716;28;20205;-82
2022/08/13 00:58:52;;;;;;;6.33;2.20;;;19.50;90.00;;;;;;5035085;28;20492;-81
2022/08/13 01:01:22;;;;;;;4.07;2.57;;;19.40;90.40;;;;;;5034480;28;20690;-81
2022/08/13 01:03:48;;;;;;;6.33;2.20;;;19.20;90.60;;;;;;5035058;28;20182;-80
2022/08/13 01:06:14;;;;;;;7.33;2.50;;;19.00;90.70;;;;;;5034642;28;20194;-81
2022/08/13 01:08:40;;;;;;;7.03;2.80;;;19.10;90.30;;;;;;5034808;28;20174;-80
2022/08/13 01:11:12;;;;;;;6.07;2.47;;;19.10;90.50;;;;;;5033919;28;20224;-82
2022/08/13 01:13:41;;;;;;;8.90;2.50;;;19.30;90.10;;;;;;5033893;28;20185;-80
2022/08/13 01:16:13;;;;;;;3.27;2.50;;;19.20;90.50;;;;;;5034456;28;20205;-82
2022/08/13 01:18:46;;;;;;;7.07;3.00;;;19.30;90.30;;;;;;5034048;28;20189;-82
2022/08/13 01:21:15;;;;;;;8.57;3.33;;;19.20;90.60;;;;;;5033837;28;20217;-81
2022/08/13 01:23:48;;;;;;;4.10;2.73;;;18.90;91.00;;;;;;5033793;28;20197;-78
2022/08/13 01:26:15;;;;;;;6.57;2.60;;;18.90;90.90;;;;;;5033172;28;20281;-80
2022/08/13 01:28:43;;;;;;;5.40;3.00;;;19.10;91.00;;;;;;5034948;28;20200;-81
2022/08/13 01:31:10;;;;;;;4.93;2.80;;;18.90;91.50;;;;;;5035516;28;20204;-79
2022/08/13 01:33:36;;;;;;;4.17;3.00;;;18.70;91.80;;;;;;5036903;28;20193;-80
2022/08/13 01:36:06;;;;;;;7.47;3.13;;;18.60;91.80;;;;;;5038178;28;20248;-79
2022/08/13 01:38:36;;;;;;;4.73;2.90;;;18.60;91.80;;;;;;5037040;28;20184;-79
2022/08/13 01:41:04;;;;;;;12.57;3.10;;;18.60;91.70;;;;;;5036617;28;20201;-81
2022/08/13 01:43:30;;;;;;;6.17;3.00;;;18.70;91.40;;;;;;5036861;28;20174;-81
2022/08/13 01:45:59;;;;;;;5.27;2.90;;;18.60;91.20;;;;;;5038014;28;20221;-81
2022/08/13 01:51:21;;;;;;;5.30;2.63;;;18.60;91.80;;;;;;5039763;28;20185;-81
2022/08/13 01:53:48;;;;;;;8.07;2.97;;;18.50;92.40;;;;;;5037944;28;20645;-80
2022/08/13 01:56:16;;;;;;;3.73;2.70;;;18.40;92.50;;;;;;5038474;28;20224;-80
2022/08/13 01:58:42;;;;;;;4.77;3.00;;;18.50;92.50;;;;;;5038955;28;20200;-80
2022/08/13 02:01:08;;;;;;;5.80;2.97;;;18.30;92.50;;;;;;5038186;28;20682;-78
2022/08/13 02:03:34;;;;;;;5.83;2.93;;;18.40;92.30;;;;;;5041952;28;20249;-80
2022/08/13 02:06:00;;;;;;;10.27;3.13;;;18.50;92.10;;;;;;5042371;28;20650;-81
2022/08/13 02:08:29;;;;;;;7.37;2.87;;;18.40;92.20;;;;;;5042101;28;20178;-81
2022/08/13 02:10:56;;;;;;;4.10;2.97;;;18.20;92.00;;;;;;5041597;28;20161;-81
2022/08/13 02:13:28;;;;;;;4.97;2.83;;;18.50;91.70;;;;;;5042679;28;20178;-80
2022/08/13 02:15:54;;;;;;;4.40;2.47;;;18.50;91.90;;;;;;5042922;28;20543;-82
2022/08/13 02:18:23;;;;;;;5.00;2.63;;;18.40;91.90;;;;;;5043628;28;20189;-81
2022/08/13 02:20:51;;;;;;;7.77;2.80;;;18.50;91.90;;;;;;5042671;28;20268;-80
2022/08/13 02:23:20;;;;;;;5.43;3.00;;;18.60;91.80;;;;;;5043161;28;20642;-80
2022/08/13 02:25:47;;;;;;;4.67;2.80;;;18.40;91.90;;;;;;5042832;28;20190;-79
2022/08/13 02:28:14;;;;;;;4.87;2.63;;;18.30;91.70;;;;;;5042276;28;20181;-79
2022/08/13 02:30:40;;;;;;;5.60;2.83;;;18.30;92.00;;;;;;5044416;28;20716;-80
2022/08/13 02:33:06;;;;;;;4.77;2.60;;;18.30;92.00;;;;;;5043065;28;20197;-81
2022/08/13 02:35:35;;;;;;;7.53;2.40;;;18.10;91.70;;;;;;5043704;28;20666;-81
2022/08/13 02:38:00;;;;;;;4.33;2.67;;;18.10;91.50;;;;;;5043165;28;20182;-80
2022/08/13 02:43:10;;;;;;;6.67;2.60;;;18.00;91.40;;;;;;5046844;28;20189;-80
2022/08/13 02:45:36;;;;;;;5.90;2.63;;;18.10;92.00;;;;;;5044935;28;20219;-81
2022/08/13 02:48:02;;;;;;;10.47;3.00;;;18.10;92.30;;;;;;5047753;28;20178;-80
2022/08/13 02:50:28;;;;;;;6.83;2.60;;;18.20;92.00;;;;;;5047159;28;20269;-80
2022/08/13 02:52:54;;;;;;;3.67;2.40;;;18.20;92.60;;;;;;5042913;28;20185;-79
2022/08/13 02:55:22;;;;;;;3.40;2.20;;;18.20;92.70;;;;;;5037658;28;20285;-80
2022/08/13 02:57:49;;;;;;;4.27;2.50;;;18.10;92.80;;;;;;5035803;28;20650;-80
2022/08/13 03:00:17;;;;;;;3.40;2.47;;;18.10;92.80;;;;;;5036091;28;20206;-81
2022/08/13 03:02:44;;;;;;;4.00;2.33;;;18.00;93.50;;;;;;5035650;28;20241;-80
2022/08/13 03:05:16;;;;;;;6.30;2.47;;;17.90;93.80;;;;;;5036195;28;20670;-78
2022/08/13 03:07:43;;;;;;;3.13;2.60;;;17.90;93.90;;;;;;5036131;28;20185;-78
2022/08/13 03:10:11;;;;;;;7.43;2.77;;;17.90;93.70;;;;;;5035787;28;20216;-79
2022/08/13 03:12:40;;;;;;;5.87;2.63;;;18.00;93.40;;;;;;5035171;28;20269;-79
2022/08/13 03:15:10;;;;;;;2.77;2.37;;;18.00;93.50;;;;;;5035719;28;20204;-79
2022/08/13 03:17:37;;;;;;;4.73;2.50;;;17.80;94.00;;;;;;5036312;28;20178;-81
2022/08/13 03:20:15;;;;;;;3.83;2.43;;;17.70;94.00;;;;;;5035310;28;20548;-79
2022/08/13 03:22:58;;;;;;;5.27;2.30;;;17.90;93.70;;;;;;5034865;28;20174;-81
2022/08/13 03:25:29;;;;;;;4.43;2.40;;;18.00;93.60;;;;;;5035481;28;20194;-79
2022/08/13 03:27:58;;;;;;;4.40;2.47;;;17.90;93.90;;;;;;5035661;28;20261;-79
2022/08/13 03:30:24;;;;;;;4.80;2.60;;;17.90;93.90;;;;;;5037374;28;20657;-81
2022/08/13 03:32:51;;;;;;;4.50;2.57;;;17.70;93.70;;;;;;5036219;28;20728;-80
2022/08/13 03:35:20;;;;;;;3.47;2.53;;;17.90;93.40;;;;;;5036728;28;20202;-81
2022/08/13 03:37:47;;;;;;;3.33;2.20;;;17.80;93.60;;;;;;5034655;28;20225;-82
2022/08/13 03:40:16;;;;;;;2.40;2.30;;;17.70;94.10;;;;;;5034574;28;20206;-81
2022/08/13 03:42:43;;;;;;;4.53;2.17;;;17.70;94.20;;;;;;5034188;28;20170;-82
2022/08/13 03:45:10;;;;;;;4.33;2.47;;;17.50;94.70;;;;;;5034612;28;20240;-79
2022/08/13 03:47:38;;;;;;;2.40;2.20;;;17.50;94.90;;;;;;5034802;28;20638;-81
2022/08/13 03:50:06;;;;;;;6.20;2.70;;;17.50;95.00;;;;;;5034697;28;20186;-79
2022/08/13 03:52:33;;;;;;;4.93;2.43;;;17.60;94.40;;;;;;5034646;28;20716;-79
2022/08/13 03:55:02;;;;;;;4.07;2.60;;;17.50;94.60;;;;;;5034587;28;20205;-80
2022/08/13 03:57:28;;;;;;;6.20;2.50;;;17.30;94.70;;;;;;5034668;28;20182;-80
2022/08/13 03:59:54;;;;;;;3.20;2.60;;;17.30;95.00;;;;;;5034431;28;20581;-80
2022/08/13 04:02:20;;;;;;;5.37;2.60;;;17.60;94.60;;;;;;5034525;28;20176;-81
2022/08/13 04:04:47;;;;;;;2.93;2.30;;;17.80;94.00;;;;;;5034691;28;20666;-80
2022/08/13 04:07:15;;;;;;;3.00;2.10;;;17.60;94.20;;;;;;5034432;28;20174;-79
2022/08/13 04:09:42;;;;;;;6.53;2.50;;;17.70;93.90;;;;;;5034584;28;20181;-80
2022/08/13 04:12:12;;;;;;;4.90;2.90;;;17.70;94.40;;;;;;5034380;28;20178;-80
2022/08/13 04:14:44;;;;;;;4.20;2.30;;;17.50;94.30;;;;;;5035152;28;20559;-80
2022/08/13 04:17:10;;;;;;;4.80;2.80;;;17.40;94.80;;;;;;5035451;28;20174;-81
2022/08/13 04:19:40;;;;;;;5.33;2.50;;;17.60;94.20;;;;;;5035904;28;20190;-81
2022/08/13 04:22:07;;;;;;;2.73;2.37;;;17.50;94.50;;;;;;5035304;28;20174;-82
2022/08/13 04:24:34;;;;;;;9.20;2.67;;;17.30;94.40;;;;;;5035641;28;20197;-82
2022/08/13 04:27:04;;;;;;;3.50;2.40;;;17.50;94.70;;;;;;5035048;28;20166;-79
2022/08/13 04:29:30;;;;;;;3.97;2.60;;;17.30;94.80;;;;;;5036822;28;20179;-79
2022/08/13 04:32:02;;;;;;;5.63;3.00;;;17.30;94.60;;;;;;5036511;28;20174;-81
2022/08/13 04:34:28;;;;;;;4.37;2.70;;;17.40;94.00;;;;;;5036613;28;20253;-81
2022/08/13 04:36:55;;;;;;;4.73;2.90;;;17.40;94.20;;;;;;5038371;28;20522;-80
2022/08/13 04:39:21;;;;;;;8.67;2.63;;;17.40;94.70;;;;;;5036505;28;20170;-80
2022/08/13 04:41:47;;;;;;;3.03;2.73;;;17.40;94.80;;;;;;5036760;28;20212;-81
2022/08/13 04:44:12;;;;;;;4.40;2.33;;;17.50;95.20;;;;;;5036621;28;20174;-81
2022/08/13 04:46:39;;;;;;;4.90;2.37;;;17.60;94.60;;;;;;5037834;28;20205;-79
2022/08/13 04:49:06;;;;;;;3.63;2.83;;;17.40;94.70;;;;;;5037051;28;20194;-81
2022/08/13 04:51:34;;;;;;;5.27;3.03;;;17.50;94.40;;;;;;5034637;28;20179;-81
2022/08/13 04:54:00;;;;;;;7.00;3.33;;;17.50;94.20;;;;;;5037298;28;20657;-79
2022/08/13 04:56:25;;;;;;;4.53;2.40;;;17.60;94.60;;;;;;5037330;28;20197;-81
2022/08/13 04:58:51;;;;;;;2.77;2.57;;;17.70;95.20;;;;;;5037298;28;20201;-80
2022/08/13 05:01:16;;;;;;;2.77;2.53;;;17.80;95.40;;;;;;5037380;28;20197;-80
2022/08/13 05:03:45;;;;;;;4.33;2.33;;;17.90;95.00;;;;;;5037207;28;20666;-82
2022/08/13 05:06:19;;;;;;;6.47;2.77;;;18.00;95.60;;;;;;5038534;28;20193;-81
2022/08/13 05:08:46;;;;;;;10.17;2.50;;;18.00;95.40;;;;;;5036903;28;20154;-80
2022/08/13 05:11:12;;;;;;;3.00;2.40;;;18.20;95.60;;;;;;5037624;28;20890;-80
2022/08/13 05:13:39;;;;;;;3.50;2.30;;;18.40;94.70;;;;;;5038087;28;20178;-81
2022/08/13 05:16:07;;;;;;;3.83;2.50;;;18.40;95.00;;;;;;5038295;28;20201;-81
2022/08/13 05:18:36;;;;;;;3.30;2.40;;;18.30;95.20;;;;;;5038227;28;20710;-81
2022/08/13 05:21:04;;;;;;;8.37;2.80;;;18.50;95.10;;;;;;5037779;28;20198;-81
2022/08/13 05:23:33;;;;;;;3.67;2.20;;;18.70;94.50;;;;;;5037352;28;20193;-81
2022/08/13 05:25:59;;;;;;;3.20;2.40;;;18.60;95.10;;;;;;5037668;28;20197;-82
2022/08/13 05:28:25;;;;;;;4.60;2.60;;;18.70;95.30;;;;;;5037580;28;20227;-80
2022/08/13 05:30:51;;;;;;;2.73;2.53;;;18.70;95.10;;;;;;5038465;28;20231;-81
2022/08/13 05:33:20;;;;;;;2.60;2.40;;;18.70;94.90;;;;;;5037887;28;20197;-80
2022/08/13 05:35:49;;;;;;;8.53;2.83;;;18.80;94.70;;;;;;5039038;28;20194;-80
2022/08/13 05:38:22;;;;;;;3.00;2.27;;;18.90;95.20;;;;;;5037494;28;20181;-80
2022/08/13 05:40:56;;;;;;;2.87;2.60;;;18.90;94.70;;;;;;5039499;28;20202;-79
2022/08/13 05:43:24;;;;;;;3.03;2.40;;;19.10;94.40;;;;;;5039374;28;20176;-81
2022/08/13 05:45:58;;;;;;;5.50;2.13;;;19.20;94.70;;;;;;5039661;28;20685;-80
2022/08/13 05:48:30;;;;;;;8.80;2.23;;;19.30;92.60;;;;;;5038640;28;20161;-81
2022/08/13 05:51:00;;;;;;;2.93;2.63;;;19.40;93.10;;;;;;5037440;28;20248;-80
2022/08/13 05:53:27;;;;;;;4.93;2.50;;;19.60;91.80;;;;;;5033588;28;20220;-80
2022/08/13 05:55:54;;;;;;;3.13;2.20;;;20.00;91.90;;;;;;5032063;28;20201;-78
2022/08/13 05:58:21;;;;;;;5.05;2.25;;;20.30;91.40;;;;;;5033078;28;20184;-79
2022/08/13 06:03:32;;;;;;;5.35;2.15;;;20.50;90.90;;;;;;5035560;28;20185;-79
2022/08/13 06:06:02;;;;;;;8.40;1.90;;;20.70;91.10;;;;;;5033909;28;20200;-79
2022/08/13 06:08:32;;;;;;;4.25;2.28;;;20.90;91.10;;;;;;5032974;28;20174;-79
2022/08/13 06:10:59;;;;;;;6.15;2.08;;;21.30;90.50;;;;;;5033054;28;20553;-78
2022/08/13 06:13:26;;;;;;;2.88;1.80;;;21.40;90.60;;;;;;5032911;28;20324;-79
2022/08/13 06:15:58;;;;;;;5.30;2.03;;;21.50;90.00;;;;;;5032947;28;20194;-80
2022/08/13 06:18:27;;;;;;;2.90;2.10;;;21.90;90.40;;;;;;5033169;28;20174;-80
2022/08/13 06:20:57;;;;;;;4.55;1.90;;;22.60;88.10;;;;;;5038693;22;20241;-79
2022/08/13 06:23:25;;;;;;;4.30;1.80;;;22.40;87.10;;;;;;5034143;28;20265;-79
2022/08/13 06:25:53;;;;;;;2.42;1.98;;;22.60;86.40;;;;;;5016085;28;20171;-79
2022/08/13 06:28:25;;;;;;;4.82;1.98;;;23.40;85.90;;;;;;5033255;28;20178;-79
2022/08/13 06:30:53;;;;;;;5.90;1.90;;;23.80;84.90;;;;;;5016378;28;20261;-80
2022/08/13 06:33:21;;;;;;;3.08;1.95;;;24.10;85.60;;;;;;5030391;23;20224;-81
2022/08/13 06:35:52;;;;;;;6.35;1.67;;;23.90;84.00;;;;;;5038562;28;20267;-81
2022/08/13 06:38:19;;;;;;;3.40;1.90;;;24.20;83.10;;;;;;5037625;28;20162;-82
2022/08/13 06:40:46;;;;;;;12.25;1.83;;;24.80;82.60;;;;;;5036133;28;20247;-81
2022/08/13 06:43:19;;;;;;;3.30;1.63;;;25.10;83.10;;;;;;5036023;28;20180;-82
2022/08/13 06:45:46;;;;;;;4.85;1.60;;;25.40;82.20;;;;;;5036227;28;20228;-81
2022/08/13 06:48:13;;;;;;;2.05;1.80;;;25.50;81.20;;;;;;5038283;28;20649;-82
2022/08/13 06:50:39;;;;;;;5.63;1.80;;;25.50;80.60;;;;;;5039307;28;20267;-81
2022/08/13 06:53:06;;;;;;;12.77;2.17;;;25.50;81.30;;;;;;5037602;28;20659;-81
2022/08/13 06:55:36;;;;;;;6.95;1.90;;;25.80;79.60;;;;;;5039022;28;20200;-82
2022/08/13 06:58:11;;;;;;;6.57;2.10;;;25.50;78.80;;;;;;5038767;28;20235;-82
2022/08/13 07:00:38;;;;;;;4.88;1.80;;;25.80;79.30;;;;;;5038576;28;20185;-82
2022/08/13 07:03:06;;;;;;;8.73;1.90;;;26.20;79.30;;;;;;5038489;28;20166;-82
2022/08/13 07:05:38;;;;;;;3.53;1.75;;;26.30;78.20;;;;;;5039154;28;20255;-82
2022/08/13 07:08:07;;;;;;;4.38;1.75;;;26.50;77.30;;;;;;5038946;28;20710;-81
2022/08/13 07:10:33;;;;;;;9.20;2.20;;;26.90;77.80;;;;;;5038986;28;20245;-82
2022/08/13 07:13:00;;;;;;;8.00;2.35;;;27.10;78.90;;;;;;5056389;28;20196;-82
2022/08/13 07:15:26;;;;;;;7.35;1.70;;;27.60;77.10;;;;;;5038483;28;20204;-82
2022/08/13 07:17:55;;;;;;;2.28;1.40;;;27.60;77.90;;;;;;5038565;28;20590;-82
2022/08/13 07:20:21;;;;;;;1.80;1.70;;;26.80;74.90;;;;;;5038216;28;20247;-83
2022/08/13 07:22:47;;;;;;;6.20;1.88;;;27.20;76.20;;;;;;5056321;28;20192;-81
2022/08/13 07:25:13;;;;;;;8.80;1.85;;;27.10;76.00;;;;;;5038014;28;20193;-83
2022/08/13 07:27:41;;;;;;;4.93;1.55;;;27.80;74.50;;;;;;5038338;28;20626;-83
2022/08/13 07:30:07;;;;;;;1.85;1.60;;;27.80;76.30;;;;;;5037882;28;20641;-83
2022/08/13 07:32:37;;;;;;;2.83;1.60;;;27.90;73.70;;;;;;5037981;28;20175;-83
2022/08/13 07:35:04;;;;;;;1.70;1.60;;;28.10;75.10;;;;;;5037839;28;20193;-82
2022/08/13 07:37:33;;;;;;;4.90;1.60;;;28.00;73.80;;;;;;5038714;28;20216;-82
2022/08/13 07:39:59;;;;;;;3.00;1.50;;;27.60;73.90;;;;;;5039426;28;20228;-81
2022/08/13 07:42:26;;;;;;;5.10;1.70;;;28.50;74.50;;;;;;5038690;28;20169;-81
2022/08/13 07:44:53;;;;;;;2.83;1.60;;;28.40;73.00;;;;;;5038312;28;20243;-82
2022/08/13 07:47:21;;;;;;;5.90;1.75;;;28.30;72.60;;;;;;5038433;28;20700;-83
2022/08/13 07:49:48;;;;;;;5.10;1.63;;;29.20;73.00;;;;;;5039477;28;20360;-82
2022/08/13 07:52:14;;;;;;;6.75;1.92;;;28.90;73.10;;;;;;5038486;28;20173;-83
2022/08/13 07:54:46;;;;;;;5.95;1.50;;;29.90;73.10;;;;;;5038594;28;20661;-83
2022/08/13 07:57:12;;;;;;;6.70;1.50;;;29.40;72.50;;;;;;5038719;28;20223;-83
2022/08/13 07:59:38;;;;;;;5.60;1.63;;;30.10;73.00;;;;;;5037899;28;20173;-82
2022/08/13 08:02:07;;;;;;;1.85;1.58;;;30.10;72.30;;;;;;5038752;28;20173;-83
2022/08/13 08:04:37;;;;;;;5.95;2.05;;;30.10;71.60;;;;;;5038988;28;20166;-83
2022/08/13 08:07:03;;;;;;;3.72;1.38;;;29.80;72.00;;;;;;5038697;28;20264;-83
2022/08/13 08:09:31;;;;;;;6.68;2.22;;;29.90;72.30;;;;;;5038971;28;20180;-84
2022/08/13 08:14:46;;;;;;;4.75;1.60;;;30.30;70.90;;;;;;5057412;28;20199;-83
2022/08/13 08:17:12;;;;;;;2.75;1.77;;;29.50;71.50;;;;;;5038927;28;20173;-84
2022/08/13 08:19:40;;;;;;;3.67;1.90;;;30.30;70.40;;;;;;5038669;28;20169;-84
2022/08/13 08:22:07;;;;;;;2.00;1.55;;;30.60;70.10;;;;;;5038253;28;20216;-83
2022/08/13 08:24:34;;;;;;;3.15;1.75;;;30.60;70.40;;;;;;5038612;28;20173;-82
2022/08/13 08:27:03;;;;;;;9.55;1.70;;;31.10;70.60;;;;;;5038762;28;20180;-82
2022/08/13 08:29:31;;;;;;;4.70;1.90;;;31.40;70.70;;;;;;5038686;28;20200;-82
2022/08/13 08:31:57;;;;;;;8.55;1.70;;;30.90;70.00;;;;;;5040853;28;20236;-83
2022/08/13 08:34:25;;;;;;;5.38;1.90;;;30.50;70.50;;;;;;5041039;28;20189;-84
2022/08/13 08:36:53;;;;;;;6.20;2.00;;;30.80;69.10;;;;;;5038948;28;20169;-82
2022/08/13 08:44:51;;;;;;;3.85;1.60;;;31.70;70.70;;;;;;5057794;28;20333;-83
2022/08/13 08:47:17;;;;;;;5.93;1.80;;;32.30;68.30;;;;;;5040002;28;20264;-83
2022/08/13 08:49:43;;;;;;;4.90;1.80;;;32.00;69.50;;;;;;5039382;28;20205;-83
2022/08/13 08:52:10;;;;;;;10.10;2.10;;;31.60;68.70;;;;;;5039063;28;20174;-83
2022/08/13 08:54:39;;;;;;;4.53;1.90;;;31.40;68.70;;;;;;5037338;28;20256;-83
2022/08/13 08:57:06;;;;;;;5.10;2.05;;;30.80;68.20;;;;;;5036186;28;20181;-83
2022/08/13 08:59:35;;;;;;;2.17;1.98;;;31.10;69.30;;;;;;5035232;28;20518;-83
2022/08/13 09:02:15;;;;;;;4.78;1.80;;;32.00;67.90;;;;;;5035204;28;20256;-83
2022/08/13 09:04:41;;;;;;;2.63;2.13;;;31.40;69.00;;;;;;5034981;28;20215;-84
2022/08/13 09:07:08;;;;;;;4.75;2.13;;;31.80;68.50;;;;;;5035442;28;20268;-83
2022/08/13 09:09:35;;;;;;;8.93;1.90;;;31.90;70.10;;;;;;5035394;28;20174;-83
2022/08/13 09:12:02;;;;;;;4.07;2.20;;;32.40;69.50;;;;;;5035431;28;20307;-83
2022/08/13 09:14:32;;;;;;;5.38;2.00;;;32.10;67.80;;;;;;5035351;28;20166;-82
2022/08/13 09:17:02;;;;;;;10.75;2.03;;;32.00;67.20;;;;;;5035011;28;20174;-83
2022/08/13 09:19:28;;;;;;;4.82;1.80;;;32.20;67.60;;;;;;5035123;28;20177;-84
2022/08/13 09:21:58;;;;;;;9.93;2.15;;;32.20;66.90;;;;;;5035126;28;20630;-83
2022/08/13 09:24:24;;;;;;;5.38;1.73;;;32.20;65.90;;;;;;5034716;28;20234;-82
2022/08/13 09:26:51;;;;;;;4.85;1.80;;;32.00;67.20;;;;;;5034572;28;20173;-83
2022/08/13 09:29:19;;;;;;;4.20;2.05;;;32.10;68.20;;;;;;5035009;28;20220;-83
2022/08/13 09:31:50;;;;;;;7.65;1.92;;;32.30;66.70;;;;;;5035290;28;20201;-83
2022/08/13 09:34:16;;;;;;;2.47;2.22;;;32.50;66.90;;;;;;5036511;28;20204;-83
2022/08/13 09:36:43;;;;;;;2.55;1.80;;;31.80;65.50;;;;;;5037545;28;20266;-83
2022/08/13 09:39:17;;;;;;;3.78;1.80;;;32.10;66.30;;;;;;5036239;28;20260;-83
2022/08/13 09:41:51;;;;;;;4.35;1.90;;;32.10;66.80;;;;;;5036977;28;20208;-83
2022/08/13 09:44:17;;;;;;;3.03;1.70;;;32.30;64.60;;;;;;5036602;28;20519;-83
2022/08/13 09:46:45;;;;;;;1.60;1.50;;;32.40;66.10;;;;;;5035997;28;20224;-84
2022/08/13 09:49:14;;;;;;;2.83;1.73;;;31.70;64.50;;;;;;5036000;28;20195;-83
2022/08/13 09:51:39;;;;;;;1.73;1.60;;;32.10;64.40;;;;;;5037128;28;20188;-83
2022/08/13 09:54:08;;;;;;;6.07;2.08;;;31.90;65.60;;;;;;5036245;28;20177;-83
2022/08/13 09:56:37;;;;;;;40.92;3.80;;;33.20;65.30;;;;;;5037168;28;20207;-83
2022/08/13 09:59:08;;;;;;;1.65;1.55;;;32.30;63.50;;;;;;5036142;28;20169;-83
2022/08/13 10:01:35;;;;;;;6.03;2.08;;;31.00;64.50;;;;;;5037182;28;20207;-83
2022/08/13 10:04:01;;;;;;;2.05;1.90;;;32.00;66.50;;;;;;5037337;28;20181;-83
2022/08/13 10:06:29;;;;;;;14.65;2.55;;;31.80;63.90;;;;;;5037930;28;20199;-83
2022/08/13 10:08:55;;;;;;;4.10;1.77;;;32.60;66.50;;;;;;5037231;28;20172;-82
2022/08/13 10:11:22;;;;;;;4.95;1.77;;;31.30;64.30;;;;;;5036744;28;20239;-83
2022/08/13 10:13:48;;;;;;;26.38;2.97;;;32.10;64.90;;;;;;5035704;28;20597;-82
2022/08/13 10:16:14;;;;;;;2.05;1.63;;;31.90;65.20;;;;;;5036235;28;20235;-82
2022/08/13 10:18:41;;;;;;;5.68;1.95;;;31.50;63.60;;;;;;5035822;28;20177;-82
2022/08/13 10:21:08;;;;;;;5.43;1.70;;;32.40;63.10;;;;;;5035768;28;20246;-82
2022/08/13 10:23:35;;;;;;;3.42;2.00;;;32.90;64.40;;;;;;5040116;28;20260;-80
2022/08/13 10:26:01;;;;;;;2.05;1.95;;;31.80;64.50;;;;;;5040198;28;20194;-82
2022/08/13 10:28:32;;;;;;;8.52;2.03;;;31.70;64.80;;;;;;5040228;28;20213;-82
2022/08/13 10:31:08;;;;;;;8.88;2.15;;;31.80;64.80;;;;;;5040511;28;20180;-83
2022/08/13 10:33:35;;;;;;;13.55;2.85;;;32.50;65.00;;;;;;5041041;28;20203;-82
2022/08/13 10:36:01;;;;;;;3.45;1.80;;;31.80;65.40;;;;;;5058776;28;20766;-82
2022/08/13 10:38:27;;;;;;;5.63;2.00;;;32.30;65.50;;;;;;5041506;28;20201;-82
2022/08/13 10:40:54;;;;;;;7.80;2.03;;;32.10;64.70;;;;;;5043335;28;20197;-82
2022/08/13 10:43:21;;;;;;;4.57;1.95;;;32.30;64.50;;;;;;5039278;28;20177;-81
2022/08/13 10:45:48;;;;;;;2.83;1.98;;;32.50;65.00;;;;;;5043038;28;20189;-81
2022/08/13 10:48:14;;;;;;;6.15;2.22;;;32.80;64.00;;;;;;5040980;28;20230;-81
2022/08/13 10:50:40;;;;;;;5.03;2.22;;;32.90;64.10;;;;;;5040447;28;20189;-82
2022/08/13 10:53:06;;;;;;;9.02;2.33;;;32.50;63.50;;;;;;5040218;28;20188;-82
2022/08/13 10:55:35;;;;;;;3.13;2.00;;;32.90;64.00;;;;;;5040086;28;20216;-83
2022/08/13 10:58:03;;;;;;;6.65;2.15;;;33.90;62.80;;;;;;5060073;28;20244;-82
2022/08/13 11:00:30;;;;;;;29.15;3.92;;;33.60;62.80;;;;;;5041625;28;20189;-81
2022/08/13 11:02:55;;;;;;;7.88;2.25;;;33.70;62.80;;;;;;5040311;28;20181;-81
2022/08/13 11:05:27;;;;;;;11.55;2.35;;;34.60;62.10;;;;;;5040135;28;20555;-81
2022/08/13 11:07:53;;;;;;;10.32;2.75;;;35.40;60.20;;;;;;5039371;28;20177;-80
2022/08/13 11:10:21;;;;;;;2.90;1.98;;;34.90;59.70;;;;;;5038428;28;20169;-80
2022/08/13 11:12:50;;;;;;;2.70;2.00;;;34.80;61.60;;;;;;5038809;28;20219;-80
2022/08/13 11:15:21;;;;;;;7.43;2.03;;;33.40;60.90;;;;;;5039745;28;20262;-80
2022/08/13 11:17:53;;;;;;;8.32;2.10;;;33.20;63.60;;;;;;5040142;28;20184;-79
2022/08/13 11:20:20;;;;;;;4.53;1.95;;;34.00;62.10;;;;;;5039975;28;20667;-80
2022/08/13 11:22:51;;;;;;;12.25;2.35;;;34.10;61.00;;;;;;5037380;28;20169;-78
2022/08/13 11:25:17;;;;;;;4.25;1.88;;;33.30;62.70;;;;;;5036984;28;20193;-78
2022/08/13 11:27:43;;;;;;;14.80;2.42;;;33.50;63.00;;;;;;5038730;28;20541;-78
2022/08/13 11:30:09;;;;;;;5.82;2.13;;;32.80;63.40;;;;;;5036762;28;20173;-78
2022/08/13 11:32:35;;;;;;;5.32;2.28;;;33.20;63.10;;;;;;5038624;28;20256;-81
2022/08/13 11:35:02;;;;;;;10.38;2.40;;;32.50;63.70;;;;;;5040501;28;20696;-81
2022/08/13 11:37:28;;;;;;;21.55;2.92;;;32.10;64.10;;;;;;5042104;28;20189;-81
2022/08/13 11:39:54;;;;;;;6.60;2.10;;;32.60;63.40;;;;;;5041497;28;20204;-81
2022/08/13 11:42:19;;;;;;;10.20;2.63;;;32.10;63.60;;;;;;5042080;28;20184;-81
2022/08/13 11:44:45;;;;;;;13.60;2.20;;;32.40;63.70;;;;;;5042247;28;20232;-80
2022/08/13 11:47:10;;;;;;;3.10;2.30;;;32.00;63.70;;;;;;5040086;28;20272;-80
2022/08/13 11:49:36;;;;;;;4.25;2.10;;;32.00;62.90;;;;;;5040534;28;20262;-80
2022/08/13 11:52:02;;;;;;;7.05;2.40;;;32.00;63.50;;;;;;5040771;28;20526;-80
2022/08/13 11:54:28;;;;;;;4.07;2.22;;;33.00;62.50;;;;;;5038603;28;20705;-80
2022/08/13 11:56:53;;;;;;;2.72;2.17;;;33.50;61.90;;;;;;5039974;28;20211;-80
2022/08/13 11:59:19;;;;;;;2.63;2.25;;;32.90;62.60;;;;;;5041141;28;20228;-80
2022/08/13 12:01:45;;;;;;;13.50;2.78;;;33.00;63.10;;;;;;5040183;28;20568;-80
2022/08/13 12:04:12;;;;;;;2.38;2.17;;;31.90;63.70;;;;;;5040059;28;20173;-80
2022/08/13 12:06:41;;;;;;;12.15;2.58;;;31.70;63.10;;;;;;5039382;28;20686;-80
2022/08/13 12:09:07;;;;;;;2.47;2.28;;;31.60;64.10;;;;;;5039219;28;20208;-80
2022/08/13 12:11:34;;;;;;;2.38;2.28;;;31.20;62.70;;;;;;5038837;28;20180;-80
2022/08/13 12:14:01;;;;;;;5.82;2.30;;;31.70;63.70;;;;;;5038774;28;20650;-79
2022/08/13 12:16:26;;;;;;;6.95;2.70;;;31.20;62.90;;;;;;5038731;28;20217;-79
2022/08/13 12:18:52;;;;;;;4.22;2.22;;;31.50;64.30;;;;;;5057011;28;20243;-79
2022/08/13 12:21:18;;;;;;;4.55;2.42;;;32.40;62.50;;;;;;5038859;28;20201;-80
2022/08/13 12:23:44;;;;;;;3.67;2.25;;;32.10;62.50;;;;;;5057190;28;20157;-81
2022/08/13 12:26:10;;;;;;;2.92;2.10;;;32.30;63.70;;;;;;5039000;28;20224;-81
2022/08/13 12:28:35;;;;;;;7.18;2.28;;;31.60;63.00;;;;;;5038456;28;20180;-81
2022/08/13 12:31:03;;;;;;;7.00;2.50;;;31.50;64.00;;;;;;5038441;28;20177;-84
2022/08/13 12:33:30;;;;;;;2.50;2.30;;;31.20;63.50;;;;;;5054865;28;20196;-83
2022/08/13 12:35:59;;;;;;;4.13;2.30;;;31.20;64.20;;;;;;5038423;28;20690;-84
2022/08/13 12:38:25;;;;;;;9.25;2.60;;;32.00;64.00;;;;;;5038639;28;20173;-84
2022/08/13 12:40:51;;;;;;;4.60;2.40;;;31.90;63.90;;;;;;5039454;28;20197;-81
2022/08/13 12:43:17;;;;;;;5.55;2.50;;;31.70;65.80;;;;;;5040085;28;20664;-82
2022/08/13 12:45:43;;;;;;;8.38;2.58;;;31.80;64.70;;;;;;5038469;28;20189;-82
2022/08/13 12:48:19;;;;;;;8.50;2.42;;;32.00;64.00;;;;;;5039608;28;20165;-83
2022/08/13 12:50:47;;;;;;;4.25;2.42;;;31.40;63.60;;;;;;5039186;28;20173;-83
2022/08/13 12:53:14;;;;;;;4.22;2.53;;;31.70;64.50;;;;;;5038533;28;20181;-83
2022/08/13 12:55:42;;;;;;;2.83;2.53;;;31.60;63.80;;;;;;5039659;28;20204;-82
2022/08/13 12:58:16;;;;;;;3.30;2.50;;;31.20;64.10;;;;;;5039548;28;20194;-83
2022/08/13 13:00:45;;;;;;;4.75;2.70;;;31.20;64.10;;;;;;5040315;28;20191;-84
2022/08/13 13:03:11;;;;;;;14.98;2.75;;;31.30;63.80;;;;;;5040923;28;20180;-83
2022/08/13 13:05:37;;;;;;;14.30;2.88;;;31.50;64.20;;;;;;5039975;28;20197;-83
2022/08/13 13:08:16;;;;;;;7.22;2.80;;;31.30;65.20;;;;;;5040120;28;20251;-83